Time;durP1;ratioP1;P1;durP2;ratioP2;P2;SDS_P1;SDS_P2;PMS_P1;PMS_P2;Temp;Humidity;BMP_temperature;BMP_pressure;BME280_temperature;BME280_humidity;BME280_pressure;Samples;Min_cycle;Max_cycle;Signal;HPM_P1;HPM_P2
2023/04/13 00:00:32;;;;;;;4.20;2.87;;;7.70;99.90;;;;;;4993535;28;20298;-78
2023/04/13 00:03:00;;;;;;;4.77;2.50;;;7.70;99.90;;;;;;4994165;28;20255;-77
2023/04/13 00:05:28;;;;;;;5.90;2.30;;;7.70;99.90;;;;;;5008863;28;20207;-78
2023/04/13 00:08:01;;;;;;;4.53;2.27;;;7.70;99.90;;;;;;5012921;28;20199;-77
2023/04/13 00:10:28;;;;;;;6.20;2.10;;;7.70;99.90;;;;;;5013627;28;20568;-77
2023/04/13 00:12:57;;;;;;;3.83;1.90;;;7.70;99.90;;;;;;4998394;28;20208;-77
2023/04/13 00:15:24;;;;;;;3.63;1.60;;;7.70;99.90;;;;;;4993439;28;20519;-77
2023/04/13 00:17:52;;;;;;;3.67;2.10;;;7.70;99.90;;;;;;4993520;28;20761;-78
2023/04/13 00:20:19;;;;;;;4.90;2.00;;;7.80;99.90;;;;;;4994024;28;20211;-77
2023/04/13 00:22:47;;;;;;;2.57;1.90;;;7.70;99.90;;;;;;4992902;28;20204;-77
2023/04/13 00:25:16;;;;;;;4.60;2.77;;;7.80;99.90;;;;;;4993443;28;20200;-78
2023/04/13 00:27:44;;;;;;;2.33;1.57;;;7.80;99.90;;;;;;4993753;28;20299;-76
2023/04/13 00:30:13;;;;;;;7.23;3.17;;;7.80;99.90;;;;;;4993797;28;20231;-77
2023/04/13 00:32:42;;;;;;;4.60;1.90;;;7.90;99.90;;;;;;4993841;28;20290;-78
2023/04/13 00:35:10;;;;;;;4.37;1.70;;;7.80;99.90;;;;;;4993259;28;20203;-78
2023/04/13 00:37:37;;;;;;;3.37;1.73;;;7.80;99.90;;;;;;4993961;28;20208;-78
2023/04/13 00:40:06;;;;;;;5.60;1.83;;;7.80;99.90;;;;;;4993431;28;20200;-78
2023/04/13 00:42:35;;;;;;;4.07;1.67;;;7.80;99.90;;;;;;4993160;28;20211;-79
2023/04/13 00:45:02;;;;;;;3.83;1.90;;;7.80;99.90;;;;;;4993282;28;20236;-79
2023/04/13 00:47:32;;;;;;;5.80;2.00;;;7.90;99.90;;;;;;4993227;28;20227;-78
2023/04/13 00:50:02;;;;;;;2.53;1.37;;;7.80;99.90;;;;;;5008007;28;20226;-78
2023/04/13 00:52:29;;;;;;;5.17;1.43;;;7.80;99.90;;;;;;5013173;28;20230;-77
2023/04/13 00:54:58;;;;;;;4.10;1.13;;;7.80;99.90;;;;;;5013207;28;20614;-78
2023/04/13 00:57:26;;;;;;;7.27;1.90;;;7.80;99.90;;;;;;5002296;28;20208;-76
2023/04/13 00:59:54;;;;;;;5.97;1.27;;;7.70;99.90;;;;;;4992786;28;20286;-78
2023/04/13 01:02:24;;;;;;;9.07;1.13;;;7.70;99.90;;;;;;4993333;28;20204;-78
2023/04/13 01:04:53;;;;;;;5.33;1.43;;;7.70;99.90;;;;;;4992648;28;20283;-77
2023/04/13 01:07:27;;;;;;;3.10;1.33;;;7.70;99.90;;;;;;4992815;28;20621;-77
2023/04/13 01:10:01;;;;;;;1.70;1.20;;;7.70;99.90;;;;;;4992024;28;20670;-76
2023/04/13 01:12:34;;;;;;;2.60;1.00;;;7.70;99.90;;;;;;5006033;28;20234;-78
2023/04/13 01:15:09;;;;;;;2.77;1.07;;;7.70;99.90;;;;;;5012434;28;20203;-77
2023/04/13 01:17:38;;;;;;;4.70;1.33;;;7.70;99.90;;;;;;4999209;28;20203;-79
2023/04/13 01:20:10;;;;;;;5.47;1.23;;;7.70;99.90;;;;;;4993284;28;20530;-77
2023/04/13 01:22:41;;;;;;;4.30;1.17;;;7.70;99.90;;;;;;4992858;28;20211;-77
2023/04/13 01:25:24;;;;;;;6.73;1.47;;;7.70;99.90;;;;;;4992267;28;20208;-77
2023/04/13 01:27:55;;;;;;;4.17;1.03;;;7.60;99.90;;;;;;4992697;28;20214;-77
2023/04/13 01:30:26;;;;;;;6.03;1.20;;;7.50;99.90;;;;;;4992916;28;20306;-78
2023/04/13 01:32:53;;;;;;;6.43;1.43;;;7.50;99.90;;;;;;4991783;28;20199;-77
2023/04/13 01:35:21;;;;;;;5.23;1.30;;;7.50;99.90;;;;;;4992502;28;20648;-77
2023/04/13 01:37:49;;;;;;;5.57;1.43;;;7.50;99.90;;;;;;5007453;28;20658;-78
2023/04/13 01:40:17;;;;;;;5.70;1.40;;;7.50;99.90;;;;;;5015598;28;20203;-78
2023/04/13 01:42:45;;;;;;;5.50;1.23;;;7.40;99.90;;;;;;5011057;28;20588;-77
2023/04/13 01:45:19;;;;;;;11.03;1.47;;;7.40;99.90;;;;;;5011218;28;20950;-78
2023/04/13 01:47:54;;;;;;;8.43;1.33;;;7.40;99.90;;;;;;5012086;28;21075;-77
2023/04/13 01:50:27;;;;;;;5.60;1.33;;;7.50;99.90;;;;;;5011532;28;20281;-77
2023/04/13 01:52:57;;;;;;;5.87;1.40;;;7.40;99.90;;;;;;5011660;28;20657;-77
2023/04/13 01:55:25;;;;;;;10.67;2.20;;;7.40;99.90;;;;;;5011977;28;20184;-77
2023/04/13 01:57:54;;;;;;;9.30;1.57;;;7.40;99.90;;;;;;5011202;28;20200;-77
2023/04/13 02:00:23;;;;;;;9.63;2.20;;;7.40;99.90;;;;;;4992085;28;20200;-78
2023/04/13 02:02:53;;;;;;;9.17;2.73;;;7.40;99.90;;;;;;5005286;28;20235;-79
2023/04/13 02:05:20;;;;;;;10.40;2.30;;;7.40;99.90;;;;;;5012187;28;20223;-78
2023/04/13 02:07:47;;;;;;;9.47;2.50;;;7.40;99.90;;;;;;5011607;28;20202;-79
2023/04/13 02:10:15;;;;;;;6.17;2.40;;;7.40;99.90;;;;;;5011184;28;20506;-77
2023/04/13 02:12:41;;;;;;;9.20;2.80;;;7.40;99.90;;;;;;5012258;28;20211;-78
2023/04/13 02:15:10;;;;;;;8.13;3.07;;;7.40;99.90;;;;;;5011139;28;20515;-77
2023/04/13 02:17:38;;;;;;;8.17;2.57;;;7.50;99.90;;;;;;5011755;28;20235;-78
2023/04/13 02:20:10;;;;;;;13.60;3.10;;;7.50;99.90;;;;;;5014020;28;20600;-75
2023/04/13 02:22:38;;;;;;;8.33;2.50;;;7.60;99.90;;;;;;5015572;28;20206;-79
2023/04/13 02:25:07;;;;;;;8.53;2.53;;;7.60;99.90;;;;;;5015347;28;20203;-77
2023/04/13 02:27:34;;;;;;;9.60;3.37;;;7.70;99.90;;;;;;5007506;28;20298;-78
2023/04/13 02:30:02;;;;;;;9.60;4.27;;;7.60;99.90;;;;;;4995739;28;20200;-77
2023/04/13 02:32:30;;;;;;;10.60;2.97;;;7.60;99.90;;;;;;4996234;28;20226;-78
2023/04/13 02:34:58;;;;;;;8.43;3.90;;;7.70;99.90;;;;;;5013827;28;20239;-78
2023/04/13 02:37:25;;;;;;;8.07;2.40;;;7.80;99.90;;;;;;5015233;28;20825;-78
2023/04/13 02:39:52;;;;;;;10.87;2.63;;;7.80;99.90;;;;;;5015258;28;20282;-79
2023/04/13 02:42:19;;;;;;;6.63;2.40;;;7.80;99.90;;;;;;5014771;28;20195;-77
2023/04/13 02:44:46;;;;;;;8.17;2.07;;;7.70;99.90;;;;;;5014645;28;20214;-79
2023/04/13 02:47:13;;;;;;;7.27;1.93;;;7.70;99.90;;;;;;5014917;28;20234;-77
2023/04/13 02:49:40;;;;;;;6.60;2.00;;;7.70;99.90;;;;;;5014411;28;20204;-78
2023/04/13 02:52:08;;;;;;;11.03;2.20;;;7.70;99.90;;;;;;5014818;28;20946;-78
2023/04/13 02:54:35;;;;;;;9.80;2.70;;;7.70;99.90;;;;;;5001007;28;20207;-79
2023/04/13 02:57:02;;;;;;;6.80;2.97;;;7.70;99.90;;;;;;4994545;28;20556;-78
2023/04/13 02:59:29;;;;;;;9.10;4.00;;;7.70;99.90;;;;;;4995283;28;20291;-78
2023/04/13 03:01:57;;;;;;;13.33;5.10;;;7.70;99.90;;;;;;4995998;28;20311;-78
2023/04/13 03:04:24;;;;;;;10.37;3.63;;;7.60;99.90;;;;;;4999674;28;20210;-78
2023/04/13 03:06:53;;;;;;;7.90;2.63;;;7.70;99.90;;;;;;5014575;28;20209;-78
2023/04/13 03:09:22;;;;;;;9.83;3.97;;;7.70;99.90;;;;;;5014361;28;20199;-78
2023/04/13 03:11:49;;;;;;;13.03;4.77;;;7.60;99.90;;;;;;5014519;28;20215;-75
2023/04/13 03:14:20;;;;;;;9.40;2.73;;;7.60;99.90;;;;;;5007385;28;20575;-79
2023/04/13 03:16:47;;;;;;;10.43;2.60;;;7.70;99.90;;;;;;4994473;28;20283;-78
2023/04/13 03:19:14;;;;;;;14.23;3.17;;;7.60;99.90;;;;;;5007797;28;20203;-76
2023/04/13 03:21:41;;;;;;;12.53;4.60;;;7.60;99.90;;;;;;5014156;28;20204;-77
2023/04/13 03:24:09;;;;;;;13.27;3.73;;;7.70;99.90;;;;;;5013861;28;20249;-78
2023/04/13 03:26:37;;;;;;;10.13;3.23;;;7.70;99.90;;;;;;5014254;28;20195;-76
2023/04/13 03:29:04;;;;;;;8.23;3.10;;;7.70;99.90;;;;;;4995930;28;20512;-78
2023/04/13 03:31:32;;;;;;;13.23;3.23;;;7.80;99.90;;;;;;4993598;28;20224;-76
2023/04/13 03:33:59;;;;;;;8.07;3.00;;;7.90;99.90;;;;;;4994755;28;20287;-77
2023/04/13 03:36:27;;;;;;;8.40;2.83;;;7.90;99.90;;;;;;4994343;28;20207;-77
2023/04/13 03:38:55;;;;;;;15.37;4.33;;;7.90;99.90;;;;;;4977340;28;20254;-77
2023/04/13 03:41:22;;;;;;;8.60;4.00;;;7.90;99.90;;;;;;4994805;28;20204;-78
2023/04/13 03:43:50;;;;;;;11.80;4.43;;;7.90;99.90;;;;;;4999285;28;20955;-79
2023/04/13 03:46:17;;;;;;;9.93;3.47;;;7.90;99.90;;;;;;5013055;28;20203;-78
2023/04/13 03:48:44;;;;;;;9.50;2.90;;;7.90;99.90;;;;;;5014040;28;20200;-77
2023/04/13 03:51:11;;;;;;;6.67;2.57;;;7.90;99.90;;;;;;5013697;28;20242;-79
2023/04/13 03:53:38;;;;;;;11.70;3.63;;;7.90;99.90;;;;;;5013763;28;20647;-77
2023/04/13 03:56:06;;;;;;;5.77;2.80;;;7.90;99.90;;;;;;5014202;28;20199;-80
2023/04/13 03:58:33;;;;;;;5.53;1.90;;;8.00;99.90;;;;;;5012853;28;20231;-81
2023/04/13 04:01:01;;;;;;;6.60;2.33;;;8.00;99.90;;;;;;5013706;28;20203;-82
2023/04/13 04:03:29;;;;;;;6.57;2.70;;;8.00;99.90;;;;;;5014189;28;20289;-80
2023/04/13 04:05:55;;;;;;;8.23;2.50;;;8.00;99.90;;;;;;5013202;28;20293;-82
2023/04/13 04:08:22;;;;;;;7.70;2.63;;;8.00;99.90;;;;;;5013961;28;20212;-79
2023/04/13 04:10:49;;;;;;;8.13;2.30;;;8.00;99.90;;;;;;5013903;28;20199;-81
2023/04/13 04:13:16;;;;;;;6.50;2.43;;;8.00;99.90;;;;;;5013144;28;20518;-81
2023/04/13 04:15:43;;;;;;;7.40;2.40;;;8.00;99.90;;;;;;5013247;28;20742;-80
2023/04/13 04:18:11;;;;;;;7.90;2.20;;;8.00;99.90;;;;;;5013621;28;20622;-82
2023/04/13 04:20:38;;;;;;;10.57;2.50;;;8.00;99.90;;;;;;5013235;28;20253;-77
2023/04/13 04:23:08;;;;;;;9.00;3.13;;;8.00;99.90;;;;;;5013824;28;20600;-80
2023/04/13 04:25:36;;;;;;;9.37;3.70;;;8.00;99.90;;;;;;5013102;28;20203;-80
2023/04/13 04:28:05;;;;;;;7.77;2.53;;;8.00;99.90;;;;;;5012934;28;20211;-80
2023/04/13 04:30:32;;;;;;;6.73;2.23;;;8.10;99.90;;;;;;5013489;28;20203;-81
2023/04/13 04:33:00;;;;;;;11.93;2.50;;;8.10;99.90;;;;;;5012986;28;20234;-81
2023/04/13 04:35:32;;;;;;;7.53;2.40;;;8.00;99.90;;;;;;5013027;28;20230;-80
2023/04/13 04:38:02;;;;;;;8.63;2.23;;;8.00;99.90;;;;;;5013574;28;20611;-81
2023/04/13 04:40:29;;;;;;;8.43;4.03;;;8.00;99.90;;;;;;5013484;28;20631;-79
2023/04/13 04:42:57;;;;;;;11.77;2.83;;;8.00;99.90;;;;;;5009740;28;20223;-80
2023/04/13 04:45:26;;;;;;;9.90;2.37;;;8.00;99.90;;;;;;4994079;28;20306;-81
2023/04/13 04:47:56;;;;;;;13.83;3.47;;;8.00;99.90;;;;;;4993359;28;20231;-80
2023/04/13 04:50:24;;;;;;;7.27;2.60;;;7.90;99.90;;;;;;4993731;28;20258;-79
2023/04/13 04:52:54;;;;;;;5.03;2.37;;;8.00;99.90;;;;;;4994005;28;20672;-80
2023/04/13 04:55:21;;;;;;;8.60;2.10;;;7.90;99.90;;;;;;4992822;28;20214;-81
2023/04/13 04:57:48;;;;;;;8.13;2.90;;;8.00;99.90;;;;;;4993603;28;20591;-78
2023/04/13 05:00:16;;;;;;;6.33;2.87;;;8.00;99.90;;;;;;4993395;28;20204;-78
2023/04/13 05:02:45;;;;;;;7.53;2.70;;;8.00;99.90;;;;;;5012051;28;20666;-81
2023/04/13 05:05:12;;;;;;;4.73;1.80;;;8.00;99.90;;;;;;5008326;28;20199;-80
2023/04/13 05:07:39;;;;;;;5.20;1.40;;;8.00;99.90;;;;;;4994218;28;20224;-80
2023/04/13 05:10:09;;;;;;;7.97;2.33;;;8.00;99.90;;;;;;4993830;28;20211;-80
2023/04/13 05:12:36;;;;;;;8.60;4.50;;;8.00;99.90;;;;;;4993981;28;20231;-82
2023/04/13 05:15:03;;;;;;;10.97;2.73;;;8.00;99.90;;;;;;4993554;28;20211;-81
2023/04/13 05:17:30;;;;;;;10.27;2.07;;;8.10;99.90;;;;;;4994508;28;20208;-80
2023/04/13 05:19:57;;;;;;;7.37;2.83;;;8.10;99.90;;;;;;5012238;28;20199;-81
2023/04/13 05:22:23;;;;;;;7.67;2.17;;;8.00;99.90;;;;;;4993507;28;20892;-80
2023/04/13 05:24:50;;;;;;;7.87;1.90;;;8.00;99.90;;;;;;4992960;28;20276;-81
2023/04/13 05:27:18;;;;;;;6.13;2.03;;;8.00;99.90;;;;;;4993882;28;20289;-82
2023/04/13 05:29:45;;;;;;;6.93;2.40;;;8.20;99.90;;;;;;5007611;28;20671;-83
2023/04/13 05:32:12;;;;;;;5.80;1.53;;;8.20;99.90;;;;;;5012891;28;20290;-79
2023/04/13 05:34:39;;;;;;;7.03;2.07;;;8.20;99.90;;;;;;5012505;28;20209;-79
2023/04/13 05:37:06;;;;;;;6.47;1.50;;;8.20;99.90;;;;;;5011166;28;20592;-79
2023/04/13 05:39:33;;;;;;;3.40;1.40;;;8.20;99.90;;;;;;5011646;28;20283;-80
2023/04/13 05:42:01;;;;;;;8.33;2.47;;;8.20;99.90;;;;;;5011922;28;20381;-80
2023/04/13 05:44:29;;;;;;;9.40;1.97;;;8.20;99.90;;;;;;5000141;28;20659;-79
2023/04/13 05:46:57;;;;;;;12.53;2.17;;;8.20;99.90;;;;;;4992251;28;20212;-79
2023/04/13 05:49:23;;;;;;;5.30;2.30;;;8.20;99.90;;;;;;4992861;28;20230;-79
2023/04/13 05:51:53;;;;;;;11.77;2.20;;;8.20;99.90;;;;;;4992011;28;20240;-81
2023/04/13 05:54:20;;;;;;;7.43;1.83;;;8.20;99.90;;;;;;4996160;28;20232;-81
2023/04/13 05:56:47;;;;;;;11.77;2.10;;;8.20;99.90;;;;;;5002528;28;20204;-81
2023/04/13 05:59:15;;;;;;;9.53;1.60;;;8.20;99.90;;;;;;5015312;28;20207;-80
2023/04/13 06:01:43;;;;;;;8.70;2.53;;;8.20;99.90;;;;;;4997240;28;20208;-79
2023/04/13 06:04:11;;;;;;;11.33;3.60;;;8.20;99.90;;;;;;5007451;28;20203;-78
2023/04/13 06:06:38;;;;;;;9.27;3.30;;;8.20;99.90;;;;;;5012770;28;20225;-80
2023/04/13 06:09:05;;;;;;;9.23;2.23;;;8.30;99.90;;;;;;5015657;28;20486;-80
2023/04/13 06:11:32;;;;;;;9.00;1.97;;;8.30;99.90;;;;;;5015714;28;20198;-79
2023/04/13 06:14:01;;;;;;;8.70;1.87;;;8.30;99.90;;;;;;5014862;28;20230;-80
2023/04/13 06:16:28;;;;;;;6.13;1.53;;;8.40;99.90;;;;;;5015422;28;20202;-81
2023/04/13 06:18:56;;;;;;;9.30;2.03;;;8.40;99.90;;;;;;4999131;28;20325;-81
2023/04/13 06:21:24;;;;;;;10.30;1.83;;;8.50;99.90;;;;;;5001757;28;20203;-79
2023/04/13 06:23:51;;;;;;;10.53;2.10;;;8.50;99.90;;;;;;5014686;28;20206;-80
2023/04/13 06:26:18;;;;;;;11.57;2.13;;;8.50;99.90;;;;;;5014794;28;20294;-78
2023/04/13 06:28:45;;;;;;;6.03;1.87;;;8.50;99.90;;;;;;5015140;28;20195;-80
2023/04/13 06:31:12;;;;;;;11.17;2.80;;;8.50;99.90;;;;;;5019687;28;20191;-80
2023/04/13 06:33:39;;;;;;;9.20;1.90;;;8.50;99.90;;;;;;5019757;28;20234;-79
2023/04/13 06:36:08;;;;;;;7.70;2.10;;;8.50;99.90;;;;;;5015213;28;20199;-80
2023/04/13 06:38:35;;;;;;;10.07;2.03;;;8.50;99.90;;;;;;4998369;28;20757;-79
2023/04/13 06:41:02;;;;;;;7.60;2.20;;;8.60;99.90;;;;;;5002806;28;20219;-80
2023/04/13 06:43:29;;;;;;;9.43;3.20;;;8.60;99.90;;;;;;5014787;28;20205;-81
2023/04/13 06:46:00;;;;;;;8.30;2.20;;;8.70;99.90;;;;;;5015117;28;20253;-79
2023/04/13 06:48:27;;;;;;;12.00;2.77;;;8.70;99.90;;;;;;5008819;28;20239;-78
2023/04/13 06:50:57;;;;;;;6.20;2.07;;;8.70;99.90;;;;;;4995305;28;20244;-78
2023/04/13 06:53:26;;;;;;;7.47;1.57;;;8.80;99.90;;;;;;4995273;28;20242;-77
2023/04/13 06:55:53;;;;;;;6.47;2.57;;;8.80;99.90;;;;;;4994936;28;20207;-78
2023/04/13 06:58:20;;;;;;;9.10;2.73;;;8.80;99.90;;;;;;5009996;28;20207;-78
2023/04/13 07:00:47;;;;;;;7.90;2.37;;;8.80;99.90;;;;;;5015086;28;20210;-77
2023/04/13 07:03:14;;;;;;;7.67;1.90;;;8.90;99.90;;;;;;5013860;28;20202;-79
2023/04/13 07:05:42;;;;;;;14.57;3.57;;;9.00;99.90;;;;;;4994884;28;20239;-79
2023/04/13 07:08:09;;;;;;;11.10;2.83;;;9.10;99.90;;;;;;5029236;28;20245;-78
2023/04/13 07:10:39;;;;;;;8.60;2.40;;;9.20;99.90;;;;;;5014451;28;20277;-79
2023/04/13 07:13:07;;;;;;;12.23;2.30;;;9.20;99.90;;;;;;5013983;28;20216;-79
2023/04/13 07:15:36;;;;;;;7.53;2.00;;;9.30;99.90;;;;;;5013856;28;20207;-79
2023/04/13 07:18:03;;;;;;;9.97;2.40;;;9.30;99.90;;;;;;5016447;28;20206;-77
2023/04/13 07:20:30;;;;;;;3.87;1.53;;;9.20;99.90;;;;;;5013903;28;20196;-79
2023/04/13 07:22:57;;;;;;;6.57;1.97;;;9.10;99.90;;;;;;5014684;28;20265;-82
2023/04/13 07:25:24;;;;;;;5.57;1.40;;;8.90;99.90;;;;;;5014019;28;20211;-79
2023/04/13 07:27:52;;;;;;;8.60;1.53;;;8.80;99.90;;;;;;5013374;28;20206;-79
2023/04/13 07:30:19;;;;;;;12.80;2.50;;;8.70;99.90;;;;;;4992692;28;20210;-78
2023/04/13 07:32:46;;;;;;;9.40;2.17;;;8.70;99.90;;;;;;5060053;22;20267;-78
2023/04/13 07:35:14;;;;;;;15.77;3.33;;;8.70;99.90;;;;;;5107553;28;20203;-79
2023/04/13 07:37:41;;;;;;;16.53;3.33;;;8.70;99.90;;;;;;5091821;28;20560;-80
2023/04/13 07:40:10;;;;;;;15.53;3.23;;;8.70;99.90;;;;;;5093989;28;20284;-79
2023/04/13 07:42:37;;;;;;;10.97;3.23;;;8.80;99.90;;;;;;5093972;28;20276;-79
2023/04/13 07:45:06;;;;;;;19.67;5.17;;;9.00;99.90;;;;;;5092993;28;20605;-78
2023/04/13 07:47:33;;;;;;;13.80;3.83;;;9.30;99.90;;;;;;5092760;28;20208;-80
2023/04/13 07:50:00;;;;;;;21.73;5.10;;;9.30;99.90;;;;;;5093720;28;20272;-79
2023/04/13 07:52:27;;;;;;;19.43;4.93;;;9.40;99.90;;;;;;5089826;28;20326;-80
2023/04/13 07:54:54;;;;;;;17.87;4.60;;;9.40;99.90;;;;;;5073685;28;20205;-80
2023/04/13 07:57:21;;;;;;;22.90;4.93;;;9.40;99.90;;;;;;5073668;28;20194;-79
2023/04/13 07:59:48;;;;;;;19.67;5.40;;;9.40;99.90;;;;;;5072574;28;20573;-79
2023/04/13 08:02:17;;;;;;;21.80;6.50;;;9.40;99.90;;;;;;5072164;28;20301;-79
2023/04/13 08:04:44;;;;;;;19.27;5.00;;;9.40;99.90;;;;;;5072565;28;20288;-80
2023/04/13 08:07:11;;;;;;;14.00;3.93;;;9.40;99.90;;;;;;5073622;28;20201;-78
2023/04/13 08:09:40;;;;;;;19.57;4.20;;;9.50;99.90;;;;;;5073324;28;20197;-81
2023/04/13 08:12:08;;;;;;;17.17;4.63;;;9.60;99.90;;;;;;5072379;28;20347;-80
2023/04/13 08:14:35;;;;;;;16.53;4.77;;;9.50;99.90;;;;;;5073595;28;20194;-79
2023/04/13 08:17:03;;;;;;;16.87;5.50;;;9.50;99.90;;;;;;5072089;28;20197;-79
2023/04/13 08:19:31;;;;;;;15.63;3.83;;;9.40;99.90;;;;;;5072445;28;20590;-79
2023/04/13 08:21:58;;;;;;;15.10;3.70;;;9.40;99.90;;;;;;5072375;28;20251;-78
2023/04/13 08:24:25;;;;;;;7.93;2.70;;;9.50;99.90;;;;;;5073761;28;20235;-79
2023/04/13 08:26:53;;;;;;;12.20;3.40;;;9.50;99.90;;;;;;5073427;28;20208;-80
2023/04/13 08:29:21;;;;;;;13.47;2.87;;;9.50;99.90;;;;;;5072580;28;20267;-78
2023/04/13 08:31:48;;;;;;;17.83;5.93;;;9.50;99.90;;;;;;5072882;28;20310;-81
2023/04/13 08:34:16;;;;;;;15.90;3.40;;;9.50;99.90;;;;;;5069928;28;20225;-80
2023/04/13 08:36:46;;;;;;;15.83;3.87;;;9.50;99.90;;;;;;5072652;28;20212;-80
2023/04/13 08:39:13;;;;;;;23.73;4.80;;;9.50;99.90;;;;;;5072921;28;20206;-81
2023/04/13 08:41:44;;;;;;;15.23;3.87;;;9.60;99.90;;;;;;5071542;28;20229;-79
2023/04/13 08:44:12;;;;;;;18.00;3.87;;;9.60;99.90;;;;;;5072343;28;20327;-81
2023/04/13 08:46:41;;;;;;;12.93;3.67;;;9.60;99.90;;;;;;5072390;28;20197;-79
2023/04/13 08:49:09;;;;;;;15.47;4.30;;;9.70;99.90;;;;;;5071709;28;20258;-75
2023/04/13 08:51:36;;;;;;;14.40;3.63;;;9.70;99.90;;;;;;5080035;28;20255;-79
2023/04/13 08:54:06;;;;;;;23.53;4.47;;;9.70;99.90;;;;;;5092226;28;20256;-77
2023/04/13 08:56:33;;;;;;;16.57;5.77;;;9.70;99.90;;;;;;5080778;28;20292;-80
2023/04/13 08:59:05;;;;;;;14.43;4.00;;;9.80;99.90;;;;;;5072525;28;20203;-77
2023/04/13 09:01:33;;;;;;;13.53;3.53;;;9.80;99.90;;;;;;5071745;28;20202;-80
2023/04/13 09:04:07;;;;;;;14.17;3.67;;;9.80;99.90;;;;;;5072554;28;20287;-80
2023/04/13 09:06:38;;;;;;;13.47;3.03;;;9.90;99.90;;;;;;5072108;28;20628;-81
2023/04/13 09:09:11;;;;;;;10.67;3.30;;;10.00;99.90;;;;;;5072201;28;20299;-79
2023/04/13 09:11:38;;;;;;;14.33;3.57;;;10.10;99.90;;;;;;5072816;28;20207;-77
2023/04/13 09:14:05;;;;;;;14.63;3.20;;;10.20;99.90;;;;;;5071893;28;20278;-78
2023/04/13 09:16:39;;;;;;;15.20;4.23;;;10.30;99.90;;;;;;5071964;28;20542;-78
2023/04/13 09:19:07;;;;;;;13.00;3.40;;;10.40;99.90;;;;;;5072809;28;20656;-79
2023/04/13 09:21:37;;;;;;;12.70;3.47;;;10.40;99.90;;;;;;5072131;28;20594;-78
2023/04/13 09:24:07;;;;;;;15.47;3.10;;;10.50;99.90;;;;;;5071442;28;20193;-77
2023/04/13 09:26:41;;;;;;;13.60;3.20;;;10.60;99.90;;;;;;5071879;28;20210;-79
2023/04/13 09:29:10;;;;;;;10.40;3.17;;;10.70;99.90;;;;;;5074866;28;20204;-78
2023/04/13 09:31:38;;;;;;;18.63;3.10;;;10.80;99.90;;;;;;5076323;28;20605;-83
2023/04/13 09:34:05;;;;;;;15.43;3.47;;;11.00;99.90;;;;;;5076515;28;20534;-79
2023/04/13 09:36:32;;;;;;;15.30;3.27;;;11.10;99.90;;;;;;5076886;28;20209;-78
2023/04/13 09:38:59;;;;;;;14.93;3.03;;;11.20;99.90;;;;;;5077309;28;20585;-83
2023/04/13 09:41:36;;;;;;;9.67;2.93;;;11.30;99.90;;;;;;5077176;28;20193;-77
2023/04/13 09:44:14;;;;;;;11.60;3.17;;;11.30;99.90;;;;;;5056278;28;20197;-78
2023/04/13 09:46:41;;;;;;;11.70;3.00;;;11.40;99.90;;;;;;5069493;28;20201;-78
2023/04/13 09:49:09;;;;;;;11.37;3.23;;;11.40;99.90;;;;;;5076431;28;20208;-79
2023/04/13 09:51:37;;;;;;;16.73;4.70;;;11.50;99.90;;;;;;5075863;28;20284;-77
2023/04/13 09:54:05;;;;;;;11.77;3.00;;;11.60;99.90;;;;;;5075228;28;20224;-78
2023/04/13 09:56:45;;;;;;;12.40;3.37;;;11.70;99.90;;;;;;5071790;28;20217;-80
2023/04/13 09:59:13;;;;;;;14.40;5.43;;;11.80;99.90;;;;;;5077580;28;20212;-80
2023/04/13 10:01:40;;;;;;;12.47;3.83;;;11.80;99.90;;;;;;5094566;28;20216;-78
2023/04/13 10:04:08;;;;;;;12.43;3.60;;;11.80;99.90;;;;;;5094561;28;20200;-81
2023/04/13 10:06:38;;;;;;;12.20;3.60;;;11.80;99.90;;;;;;5074242;28;20510;-80
2023/04/13 10:09:05;;;;;;;12.10;3.20;;;11.80;99.90;;;;;;5075021;28;20210;-78
2023/04/13 10:11:37;;;;;;;12.30;3.40;;;11.90;99.90;;;;;;5075587;28;20201;-82
2023/04/13 10:14:11;;;;;;;14.00;3.37;;;12.10;99.90;;;;;;5066636;28;20241;-80
2023/04/13 10:16:53;;;;;;;13.13;4.37;;;12.30;99.90;;;;;;5092691;28;20291;-78
2023/04/13 10:19:23;;;;;;;14.20;4.47;;;12.40;99.90;;;;;;5076155;28;20207;-77
2023/04/13 10:21:51;;;;;;;15.20;3.83;;;12.50;99.90;;;;;;5075871;28;20196;-79
2023/04/13 10:24:21;;;;;;;9.20;2.93;;;12.50;99.90;;;;;;5077773;28;20193;-75
2023/04/13 10:26:52;;;;;;;15.30;4.90;;;12.60;99.90;;;;;;5082901;28;20527;-82
2023/04/13 10:29:29;;;;;;;14.93;3.20;;;12.70;99.90;;;;;;5076220;28;20578;-78
2023/04/13 10:32:01;;;;;;;12.13;3.33;;;12.80;99.90;;;;;;5075666;28;20308;-78
2023/04/13 10:34:30;;;;;;;10.67;2.73;;;12.80;99.90;;;;;;5073878;28;20278;-80
2023/04/13 10:37:02;;;;;;;11.37;3.40;;;12.90;99.90;;;;;;5075052;28;20221;-82
2023/04/13 10:39:31;;;;;;;11.40;3.30;;;13.00;99.90;;;;;;5074366;28;20288;-81
2023/04/13 10:42:05;;;;;;;9.97;3.83;;;13.20;99.90;;;;;;5076916;28;20197;-82
2023/04/13 10:44:45;;;;;;;11.67;3.77;;;13.30;99.90;;;;;;5076935;28;20193;-81
2023/04/13 10:47:13;;;;;;;14.57;3.47;;;13.20;99.90;;;;;;5076210;28;20203;-83
2023/04/13 10:49:40;;;;;;;13.37;3.13;;;13.20;99.90;;;;;;5076328;28;20194;-81
2023/04/13 10:52:09;;;;;;;16.97;4.30;;;13.30;99.90;;;;;;5076747;28;20198;-84
2023/04/13 10:54:36;;;;;;;16.63;4.67;;;13.50;99.90;;;;;;5075745;28;20221;-81
2023/04/13 10:57:05;;;;;;;13.93;3.73;;;13.50;99.90;;;;;;5076335;28;20260;-80
2023/04/13 10:59:52;;;;;;;16.67;4.57;;;13.70;99.90;;;;;;5075564;28;20695;-80
2023/04/13 11:02:19;;;;;;;13.43;3.07;;;14.00;99.90;;;;;;5075500;28;20282;-80
2023/04/13 11:04:48;;;;;;;14.93;4.40;;;14.10;99.90;;;;;;5075874;28;20278;-84
2023/04/13 11:07:16;;;;;;;14.13;4.67;;;14.10;99.90;;;;;;5076109;28;20208;-82
2023/04/13 11:09:46;;;;;;;9.63;3.53;;;14.00;99.90;;;;;;5075667;28;20185;-85
2023/04/13 11:12:14;;;;;;;12.37;3.37;;;14.00;99.90;;;;;;5076045;28;20201;-85
2023/04/13 11:14:44;;;;;;;17.83;4.77;;;14.00;99.90;;;;;;5073797;28;20311;-86
2023/04/13 11:17:17;;;;;;;16.33;4.07;;;14.20;99.90;;;;;;5056059;28;20198;-81
2023/04/13 11:19:48;;;;;;;13.33;4.87;;;14.30;99.90;;;;;;5058097;28;20255;-81
2023/04/13 11:22:17;;;;;;;11.20;3.70;;;14.40;99.90;;;;;;5075400;28;20201;-83
2023/04/13 11:24:44;;;;;;;13.90;4.50;;;14.50;99.90;;;;;;5075620;28;20549;-81
2023/04/13 11:27:17;;;;;;;13.70;4.33;;;14.40;99.90;;;;;;5074620;28;20205;-79
2023/04/13 11:29:44;;;;;;;17.60;4.43;;;14.30;99.90;;;;;;5075478;28;20189;-86
2023/04/13 11:32:18;;;;;;;15.43;4.95;;;14.40;99.90;;;;;;5075731;28;20296;-86
2023/04/13 11:34:45;;;;;;;16.00;4.83;;;14.30;99.90;;;;;;5074072;28;20263;-84
2023/04/13 11:37:12;;;;;;;17.90;4.65;;;14.30;99.90;;;;;;5074899;28;20194;-81
2023/04/13 11:39:42;;;;;;;18.73;4.93;;;14.30;99.90;;;;;;5086171;28;20204;-79
2023/04/13 11:42:10;;;;;;;12.15;4.50;;;14.50;99.90;;;;;;5091069;28;20292;-81
2023/04/13 11:44:38;;;;;;;11.00;4.20;;;14.80;99.90;;;;;;5074395;28;20227;-81
2023/04/13 11:47:07;;;;;;;15.57;4.33;;;15.00;99.90;;;;;;5074975;28;20279;-83
2023/04/13 11:49:36;;;;;;;18.33;3.88;;;15.00;99.90;;;;;;5073971;28;20209;-80
2023/04/13 11:52:03;;;;;;;12.60;4.00;;;15.10;99.90;;;;;;5073651;28;20233;-79
2023/04/13 11:54:30;;;;;;;12.47;3.33;;;15.00;99.90;;;;;;5073933;28;20282;-77
2023/04/13 11:56:57;;;;;;;16.07;4.00;;;14.90;99.90;;;;;;5074163;28;20219;-77
2023/04/13 11:59:25;;;;;;;15.27;4.10;;;14.80;99.90;;;;;;5074342;28;20232;-78
2023/04/13 12:01:53;;;;;;;9.70;2.70;;;14.70;99.90;;;;;;5074303;28;20193;-80
2023/04/13 12:04:20;;;;;;;7.63;2.40;;;14.60;99.90;;;;;;5069960;28;20193;-79
2023/04/13 12:06:48;;;;;;;14.13;3.77;;;14.50;99.90;;;;;;5070702;28;20276;-78
2023/04/13 12:09:15;;;;;;;11.77;3.93;;;14.40;99.90;;;;;;5068322;28;20590;-78
2023/04/13 12:11:43;;;;;;;6.17;2.87;;;14.40;99.90;;;;;;5073331;28;20227;-79
2023/04/13 12:14:21;;;;;;;12.97;3.93;;;14.50;99.90;;;;;;5067912;28;20523;-78
2023/04/13 12:16:49;;;;;;;14.93;4.10;;;14.50;99.90;;;;;;5070984;28;20456;-78
2023/04/13 12:19:22;;;;;;;10.57;3.57;;;14.50;99.90;;;;;;5072213;28;20202;-83
2023/04/13 12:21:54;;;;;;;12.97;3.23;;;14.50;99.90;;;;;;5076324;28;20189;-82
2023/04/13 12:24:31;;;;;;;15.67;4.00;;;14.40;99.90;;;;;;5071217;28;20198;-82
2023/04/13 12:27:02;;;;;;;14.97;3.87;;;14.30;99.90;;;;;;5063076;28;20288;-81
2023/04/13 12:29:28;;;;;;;12.53;3.60;;;14.20;99.90;;;;;;5073401;28;20197;-79
2023/04/13 12:32:00;;;;;;;12.57;3.43;;;14.20;99.90;;;;;;5071624;28;20316;-84
2023/04/13 12:34:27;;;;;;;8.90;3.03;;;14.20;99.90;;;;;;5073628;28;20239;-77
2023/04/13 12:36:56;;;;;;;15.67;3.90;;;14.30;99.90;;;;;;5069325;28;20292;-81
2023/04/13 12:39:23;;;;;;;11.18;3.38;;;14.20;99.90;;;;;;5072671;28;20259;-78
2023/04/13 12:41:50;;;;;;;13.80;3.22;;;14.20;99.90;;;;;;5070490;28;20284;-83
2023/04/13 12:44:17;;;;;;;11.93;2.85;;;14.10;99.90;;;;;;5073388;28;20272;-83
2023/04/13 12:46:44;;;;;;;9.47;2.90;;;14.00;99.90;;;;;;5071201;28;20202;-81
2023/04/13 12:49:11;;;;;;;13.17;3.00;;;14.00;99.90;;;;;;5063492;28;20225;-83
2023/04/13 12:51:38;;;;;;;10.90;2.63;;;13.90;99.90;;;;;;5065896;28;20504;-80
2023/04/13 12:54:11;;;;;;;13.57;3.03;;;13.90;99.90;;;;;;5063142;28;20518;-78